createdAt,value
2022-08-25T00:02:08.337Z,4.32
2022-08-25T00:04:38.476Z,3.95
2022-08-25T00:07:07.515Z,4.32
2022-08-25T00:09:36.369Z,3.92
2022-08-25T00:12:04.015Z,3.60
2022-08-25T00:14:37.204Z,3.88
2022-08-25T00:17:06.224Z,3.80
2022-08-25T00:19:38.510Z,3.70
2022-08-25T00:22:07.964Z,4.05
2022-08-25T00:24:35.378Z,4.45
2022-08-25T00:27:03.840Z,4.15
2022-08-25T00:29:32.329Z,4.63
2022-08-25T00:32:02.364Z,4.38
2022-08-25T00:34:34.315Z,4.30
2022-08-25T00:37:04.932Z,4.57
2022-08-25T00:39:31.748Z,4.38
2022-08-25T00:41:59.758Z,4.97
2022-08-25T00:44:30.900Z,4.28
2022-08-25T00:47:01.563Z,4.35
2022-08-25T00:50:04.516Z,3.38
2022-08-25T00:52:43.396Z,3.75
2022-08-25T00:55:29.285Z,3.55
2022-08-25T00:58:06.791Z,4.70
2022-08-25T01:00:42.584Z,4.25
2022-08-25T01:03:10.227Z,4.75
2022-08-25T01:05:39.539Z,4.55
2022-08-25T01:08:10.197Z,3.75
2022-08-25T01:10:42.668Z,4.30
2022-08-25T01:13:19.365Z,4.70
2022-08-25T01:15:51.469Z,4.57
2022-08-25T01:18:18.324Z,5.03
2022-08-25T01:20:50.930Z,4.22
2022-08-25T01:23:18.582Z,4.82
2022-08-25T01:26:01.069Z,4.35
2022-08-25T01:28:28.548Z,5.32
2022-08-25T01:30:55.416Z,4.53
2022-08-25T01:33:23.371Z,4.60
2022-08-25T01:35:50.196Z,4.18
2022-08-25T01:38:17.765Z,4.80
2022-08-25T01:40:44.737Z,4.55
2022-08-25T01:43:14.101Z,4.50
2022-08-25T01:45:46.361Z,5.20
2022-08-25T01:48:15.248Z,4.75
2022-08-25T01:50:46.191Z,4.43
2022-08-25T01:53:23.540Z,4.20
2022-08-25T01:55:54.267Z,4.03
2022-08-25T01:58:31.582Z,4.22
2022-08-25T02:01:05.475Z,4.10
2022-08-25T02:03:32.924Z,3.85
2022-08-25T02:06:01.480Z,3.97
2022-08-25T02:08:32.381Z,3.95
2022-08-25T02:10:59.597Z,3.90
2022-08-25T02:13:26.986Z,3.30
2022-08-25T02:16:01.097Z,3.20
2022-08-25T02:18:27.949Z,3.53
2022-08-25T02:20:54.663Z,3.25
2022-08-25T02:23:21.625Z,3.17
2022-08-25T02:25:48.740Z,3.30
2022-08-25T02:28:15.611Z,3.00
2022-08-25T02:30:43.551Z,2.67
2022-08-25T02:33:11.449Z,3.00
2022-08-25T02:35:39.128Z,3.10
2022-08-25T02:38:06.956Z,2.88
2022-08-25T02:40:33.822Z,2.65
2022-08-25T02:43:03.053Z,2.72
2022-08-25T02:45:30.060Z,2.80
2022-08-25T02:47:56.853Z,2.90
2022-08-25T02:50:23.881Z,2.97
2022-08-25T02:52:51.888Z,3.20
2022-08-25T02:55:19.467Z,2.65
2022-08-25T02:57:46.412Z,2.70
2022-08-25T03:00:16.710Z,2.60
2022-08-25T03:02:44.666Z,2.65
2022-08-25T03:05:14.390Z,3.03
2022-08-25T03:07:41.548Z,3.08
2022-08-25T03:10:17.148Z,2.25
2022-08-25T03:12:45.408Z,2.70
2022-08-25T03:15:18.764Z,2.70
2022-08-25T03:17:49.276Z,2.83
2022-08-25T03:20:19.744Z,2.95
2022-08-25T03:22:46.572Z,2.50
2022-08-25T03:25:31.951Z,2.70
2022-08-25T03:28:00.326Z,2.97
2022-08-25T03:30:27.962Z,2.45
2022-08-25T03:32:55.235Z,2.90
2022-08-25T03:35:23.622Z,2.60
2022-08-25T03:37:51.151Z,2.92
2022-08-25T03:40:18.101Z,2.90
2022-08-25T03:42:46.353Z,2.42
2022-08-25T03:45:16.399Z,2.30
2022-08-25T03:47:47.663Z,2.40
2022-08-25T03:50:18.607Z,2.50
2022-08-25T03:52:51.367Z,3.80
2022-08-25T03:55:20.340Z,2.25
2022-08-25T03:57:47.065Z,2.38
2022-08-25T04:00:14.193Z,2.63
2022-08-25T04:02:42.560Z,2.38
2022-08-25T04:05:11.499Z,2.50
2022-08-25T04:07:39.544Z,2.88
2022-08-25T04:10:10.509Z,2.47
2022-08-25T04:12:37.761Z,2.53
2022-08-25T04:15:07.565Z,1.95
2022-08-25T04:17:42.072Z,1.90
2022-08-25T04:20:14.143Z,2.63
2022-08-25T04:22:41.379Z,2.30
2022-08-25T04:25:12.172Z,2.40
2022-08-25T04:27:39.047Z,2.50
2022-08-25T04:30:06.891Z,2.28
2022-08-25T04:32:36.216Z,2.03
2022-08-25T04:35:05.408Z,2.17
2022-08-25T04:37:33.364Z,2.28
2022-08-25T04:40:00.531Z,2.20
2022-08-25T04:42:27.839Z,2.00
2022-08-25T04:44:54.619Z,2.22
2022-08-25T04:47:22.075Z,2.22
2022-08-25T04:49:48.996Z,2.40
2022-08-25T04:52:15.787Z,2.15
2022-08-25T04:54:43.694Z,2.30
2022-08-25T04:57:10.880Z,2.20
2022-08-25T04:59:38.044Z,2.20
2022-08-25T05:02:06.546Z,2.50
2022-08-25T05:04:36.392Z,2.35
2022-08-25T05:07:04.228Z,2.30
2022-08-25T05:09:32.587Z,1.92
2022-08-25T05:12:01.431Z,2.10
2022-08-25T05:14:29.447Z,2.80
2022-08-25T05:16:57.497Z,2.35
2022-08-25T05:19:25.173Z,2.70
2022-08-25T05:21:52.441Z,2.70
2022-08-25T05:24:20.709Z,2.55
2022-08-25T05:26:47.573Z,2.45
2022-08-25T05:29:14.434Z,2.60
2022-08-25T05:31:44.901Z,2.30
2022-08-25T05:34:13.916Z,2.25
2022-08-25T05:36:43.282Z,2.22
2022-08-25T05:39:11.151Z,2.88
2022-08-25T05:41:38.599Z,2.42
2022-08-25T05:44:06.285Z,2.22
2022-08-25T05:46:33.518Z,2.15
2022-08-25T05:49:01.870Z,2.13
2022-08-25T05:51:28.908Z,2.10
2022-08-25T05:53:55.737Z,2.28
2022-08-25T05:56:22.591Z,2.10
2022-08-25T05:58:50.264Z,2.03
2022-08-25T06:01:48.555Z,1.92
2022-08-25T06:04:19.740Z,1.60
2022-08-25T06:06:48.660Z,1.83
2022-08-25T06:09:15.443Z,1.90
2022-08-25T06:11:45.189Z,1.80
2022-08-25T06:14:11.961Z,1.88
2022-08-25T06:16:40.250Z,1.98
2022-08-25T06:19:10.099Z,2.63
2022-08-25T06:21:43.314Z,1.85
2022-08-25T06:24:15.175Z,1.60
2022-08-25T06:26:43.155Z,1.70
2022-08-25T06:29:13.961Z,1.60
2022-08-25T06:31:42.337Z,2.60
2022-08-25T06:34:09.591Z,1.75
2022-08-25T06:36:36.382Z,1.77
2022-08-25T06:39:03.661Z,1.95
2022-08-25T06:41:36.715Z,1.60
2022-08-25T06:44:06.030Z,1.70
2022-08-25T06:46:36.146Z,1.40
2022-08-25T06:49:05.859Z,1.35
2022-08-25T06:51:35.624Z,1.67
2022-08-25T06:54:04.257Z,1.50
2022-08-25T06:56:31.016Z,1.50
2022-08-25T06:58:57.989Z,1.63
2022-08-25T07:01:27.020Z,1.52
2022-08-25T07:03:59.099Z,1.50
2022-08-25T07:06:29.389Z,1.58
2022-08-25T07:08:56.313Z,1.60
2022-08-25T07:11:23.439Z,1.48
2022-08-25T07:13:51.229Z,1.77
2022-08-25T07:16:20.624Z,1.98
2022-08-25T07:18:48.758Z,1.70
2022-08-25T07:21:16.167Z,1.88
2022-08-25T07:23:43.647Z,1.77
2022-08-25T07:26:36.690Z,1.50
2022-08-25T07:29:31.937Z,1.40
2022-08-25T07:32:01.779Z,1.15
2022-08-25T07:34:52.170Z,1.80
2022-08-25T07:40:25.585Z,2.30
2022-08-25T07:42:56.774Z,1.67
2022-08-25T07:45:31.293Z,1.45
2022-08-25T07:48:12.078Z,1.30
2022-08-25T07:50:45.589Z,1.60
2022-08-25T07:53:15.274Z,1.60
2022-08-25T07:55:45.038Z,2.75
2022-08-25T07:58:15.256Z,1.58
2022-08-25T08:00:42.428Z,1.50
2022-08-25T08:03:19.851Z,1.15
2022-08-25T08:05:57.177Z,1.42
2022-08-25T08:08:23.963Z,1.70
2022-08-25T08:11:06.085Z,1.33
2022-08-25T08:13:40.806Z,1.50
2022-08-25T08:16:14.850Z,1.35
2022-08-25T08:18:46.854Z,1.35
2022-08-25T08:21:30.323Z,1.15
2022-08-25T08:23:59.190Z,2.22
2022-08-25T08:26:48.134Z,1.42
2022-08-25T08:29:16.302Z,1.20
2022-08-25T08:31:48.593Z,1.38
2022-08-25T08:34:16.722Z,1.55
2022-08-25T08:36:45.374Z,1.30
2022-08-25T08:39:12.311Z,1.50
2022-08-25T08:42:17.809Z,1.50
2022-08-25T08:44:44.584Z,1.08
2022-08-25T08:47:56.034Z,1.25
2022-08-25T08:50:33.096Z,0.93
2022-08-25T08:53:16.431Z,1.42
2022-08-25T08:55:57.983Z,1.35
2022-08-25T08:59:06.237Z,1.45
2022-08-25T09:01:52.592Z,2.25
2022-08-25T09:04:55.555Z,1.10
2022-08-25T09:07:48.822Z,0.90
2022-08-25T09:10:25.952Z,1.23
2022-08-25T09:13:12.257Z,1.20
2022-08-25T09:16:20.444Z,1.48
2022-08-25T09:19:21.341Z,1.27
2022-08-25T09:22:33.942Z,1.17
2022-08-25T09:25:54.155Z,1.20
2022-08-25T09:28:51.644Z,1.20
2022-08-25T09:31:29.374Z,1.02
2022-08-25T09:34:01.530Z,0.88
2022-08-25T09:36:33.219Z,1.00
2022-08-25T09:39:05.471Z,1.30
2022-08-25T09:41:55.993Z,0.80
2022-08-25T09:44:24.524Z,1.40
2022-08-25T09:47:15.104Z,1.05
2022-08-25T09:49:46.521Z,1.20
2022-08-25T09:52:28.452Z,0.98
2022-08-25T09:54:57.911Z,1.30
2022-08-25T09:57:42.547Z,1.58
2022-08-25T10:00:23.689Z,1.10
2022-08-25T10:03:13.164Z,1.08
2022-08-25T10:05:57.726Z,1.13
2022-08-25T10:08:40.923Z,1.00
2022-08-25T10:11:14.717Z,1.30
2022-08-25T10:13:51.437Z,1.00
2022-08-25T10:16:35.708Z,1.20
2022-08-25T10:19:28.934Z,0.90
2022-08-25T10:22:23.317Z,0.80
2022-08-25T10:24:50.603Z,1.08
2022-08-25T10:27:34.555Z,0.90
2022-08-25T10:30:31.229Z,1.15
2022-08-25T10:33:17.450Z,1.10
2022-08-25T10:35:53.452Z,1.15
2022-08-25T10:38:45.215Z,0.95
2022-08-25T10:41:42.716Z,1.10
2022-08-25T10:44:52.884Z,0.90
2022-08-25T10:47:48.101Z,1.00
2022-08-25T10:50:45.584Z,1.10
2022-08-25T10:53:49.607Z,1.00
2022-08-25T10:56:40.876Z,0.85
2022-08-25T10:59:55.784Z,0.75
2022-08-25T11:02:57.941Z,0.80
2022-08-25T11:05:53.777Z,1.02
2022-08-25T11:08:59.961Z,0.80
2022-08-25T11:12:13.928Z,1.20
2022-08-25T11:15:09.381Z,0.70
2022-08-25T11:17:55.512Z,0.90
2022-08-25T11:20:36.284Z,0.75
2022-08-25T11:23:36.335Z,0.90
2022-08-25T11:26:13.320Z,0.90
2022-08-25T11:29:13.258Z,0.93
2022-08-25T11:31:52.245Z,0.93
2022-08-25T11:34:21.529Z,0.90
2022-08-25T11:37:01.177Z,0.80
2022-08-25T11:40:14.334Z,0.80
2022-08-25T11:42:59.925Z,1.08
2022-08-25T11:45:54.089Z,1.10
2022-08-25T11:49:29.615Z,1.25
2022-08-25T11:52:02.774Z,0.88
2022-08-25T11:54:45.674Z,1.40
2022-08-25T11:57:28.980Z,1.20
2022-08-25T12:00:35.415Z,1.10
2022-08-25T12:03:34.179Z,0.93
2022-08-25T12:06:19.992Z,1.10
2022-08-25T12:09:03.218Z,1.15
2022-08-25T12:11:39.759Z,1.10
2022-08-25T12:14:21.584Z,1.00
2022-08-25T12:16:51.894Z,0.80
2022-08-25T12:19:36.754Z,1.10
2022-08-25T12:22:04.769Z,1.10
2022-08-25T12:24:48.262Z,1.63
2022-08-25T12:27:46.021Z,1.40
2022-08-25T12:30:38.040Z,1.10
2022-08-25T12:33:52.658Z,1.20
2022-08-25T12:36:31.416Z,1.02
2022-08-25T12:39:24.525Z,0.80
2022-08-25T12:44:40.796Z,1.00
2022-08-25T12:47:32.320Z,1.63
2022-08-25T12:50:33.347Z,1.00
2022-08-25T12:53:44.929Z,1.10
2022-08-25T12:56:49.824Z,1.33
2022-08-25T12:59:31.845Z,0.80
2022-08-25T13:02:27.086Z,1.52
2022-08-25T13:05:11.458Z,1.00
2022-08-25T13:08:15.495Z,1.02
2022-08-25T13:10:50.399Z,1.20
2022-08-25T13:13:42.766Z,1.00
2022-08-25T13:16:19.458Z,1.08
2022-08-25T13:18:51.326Z,1.08
2022-08-25T13:21:24.569Z,1.00
2022-08-25T13:24:04.601Z,1.10
2022-08-25T13:26:48.278Z,1.10
2022-08-25T13:29:22.901Z,1.50
2022-08-25T13:31:57.413Z,3.33
2022-08-25T13:34:34.990Z,1.48
2022-08-25T13:37:29.526Z,1.38
2022-08-25T13:40:25.921Z,1.60
2022-08-25T13:43:03.572Z,1.23
2022-08-25T13:45:40.927Z,1.20
2022-08-25T13:48:22.389Z,1.27
2022-08-25T13:50:54.060Z,1.25
2022-08-25T13:53:30.508Z,1.17
2022-08-25T13:56:01.517Z,1.23
2022-08-25T13:58:44.881Z,1.17
2022-08-25T14:01:47.617Z,1.20
2022-08-25T14:04:50.591Z,1.20
2022-08-25T14:07:22.145Z,1.08
2022-08-25T14:10:04.391Z,1.25
2022-08-25T14:12:44.671Z,1.67
2022-08-25T14:15:29.525Z,1.55
2022-08-25T14:18:19.898Z,1.30
2022-08-25T14:20:57.544Z,1.17
2022-08-25T14:23:29.835Z,1.35
2022-08-25T14:25:58.007Z,1.15
2022-08-25T14:28:32.267Z,1.20
2022-08-25T14:31:15.084Z,1.50
2022-08-25T14:34:05.264Z,1.13
2022-08-25T14:36:35.148Z,1.30
2022-08-25T14:39:06.052Z,1.17
2022-08-25T14:41:41.024Z,1.00
2022-08-25T14:44:10.305Z,1.30
2022-08-25T14:46:46.368Z,1.20
2022-08-25T14:49:24.902Z,1.33
2022-08-25T14:51:53.293Z,1.00
2022-08-25T14:54:25.962Z,1.10
2022-08-25T14:56:54.460Z,1.38
2022-08-25T14:59:22.238Z,1.00
2022-08-25T15:01:50.033Z,1.27
2022-08-25T15:04:27.387Z,1.40
2022-08-25T15:06:59.345Z,1.55
2022-08-25T15:09:26.556Z,1.20
2022-08-25T15:12:00.117Z,1.33
2022-08-25T15:14:28.909Z,1.33
2022-08-25T15:17:02.268Z,1.00
2022-08-25T15:19:29.772Z,1.30
2022-08-25T15:21:57.846Z,1.30
2022-08-25T15:24:28.192Z,1.48
2022-08-25T15:26:59.246Z,1.05
2022-08-25T15:29:30.209Z,1.55
2022-08-25T15:32:00.025Z,1.00
2022-08-25T15:34:27.330Z,1.30
2022-08-25T15:36:56.539Z,1.17
2022-08-25T15:39:23.271Z,1.40
2022-08-25T15:41:52.314Z,1.10
2022-08-25T15:44:20.330Z,1.05
2022-08-25T15:46:50.046Z,1.40
2022-08-25T15:49:23.073Z,1.10
2022-08-25T15:51:53.255Z,1.13
2022-08-25T15:54:26.827Z,1.27
2022-08-25T15:56:56.687Z,1.08
2022-08-25T15:59:25.211Z,1.45
2022-08-25T16:01:54.774Z,1.00
2022-08-25T16:04:26.240Z,1.10
2022-08-25T16:06:53.560Z,1.20
2022-08-25T16:09:22.943Z,2.45
2022-08-25T16:11:56.517Z,1.85
2022-08-25T16:14:25.396Z,1.70
2022-08-25T16:16:58.253Z,1.60
2022-08-25T16:19:29.083Z,1.42
2022-08-25T16:21:56.874Z,2.92
2022-08-25T16:24:24.340Z,2.55
2022-08-25T16:26:52.088Z,2.70
2022-08-25T16:29:19.858Z,2.50
2022-08-25T16:31:53.319Z,2.97
2022-08-25T16:34:28.440Z,2.47
2022-08-25T16:36:55.864Z,2.72
2022-08-25T16:39:24.025Z,3.10
2022-08-25T16:41:52.470Z,2.95
2022-08-25T16:44:22.487Z,2.42
2022-08-25T16:46:54.740Z,2.08
2022-08-25T16:49:24.188Z,2.88
2022-08-25T16:51:56.661Z,2.85
2022-08-25T16:54:45.336Z,3.35
2022-08-25T16:57:12.927Z,3.13
2022-08-25T16:59:40.024Z,3.28
2022-08-25T17:02:07.058Z,4.38
2022-08-25T17:04:33.861Z,4.13
2022-08-25T17:07:03.074Z,4.72
2022-08-25T17:09:34.767Z,5.03
2022-08-25T17:12:01.516Z,5.35
2022-08-25T17:14:28.812Z,7.65
2022-08-25T17:16:55.611Z,8.57
2022-08-25T17:19:25.776Z,21.70
2022-08-25T17:21:54.987Z,12.70
2022-08-25T17:24:29.379Z,11.68
2022-08-25T17:26:58.412Z,8.48
2022-08-25T17:29:25.452Z,14.40
2022-08-25T17:31:53.321Z,11.10
2022-08-25T17:34:23.420Z,7.75
2022-08-25T17:36:51.240Z,7.13
2022-08-25T17:39:22.557Z,8.60
2022-08-25T17:41:50.491Z,7.72
2022-08-25T17:44:18.173Z,6.53
2022-08-25T17:46:47.519Z,6.50
2022-08-25T17:49:18.596Z,5.93
2022-08-25T17:51:45.536Z,6.28
2022-08-25T17:54:13.225Z,7.47
2022-08-25T17:56:40.657Z,7.28
2022-08-25T17:59:08.789Z,6.00
2022-08-25T18:01:41.181Z,6.55
2022-08-25T18:04:17.161Z,6.00
2022-08-25T18:06:45.794Z,5.53
2022-08-25T18:09:15.002Z,6.05
2022-08-25T18:11:42.409Z,6.47
2022-08-25T18:14:12.135Z,6.30
2022-08-25T18:16:39.430Z,8.18
2022-08-25T18:19:10.838Z,8.20
2022-08-25T18:21:41.392Z,7.53
2022-08-25T18:24:13.481Z,7.90
2022-08-25T18:26:42.048Z,7.78
2022-08-25T18:29:12.886Z,7.10
2022-08-25T18:31:41.738Z,7.18
2022-08-25T18:34:11.112Z,7.93
2022-08-25T18:36:39.193Z,8.40
2022-08-25T18:39:25.630Z,9.45
2022-08-25T18:41:56.852Z,8.57
2022-08-25T18:44:23.733Z,8.13
2022-08-25T18:46:50.757Z,8.10
2022-08-25T18:49:22.300Z,9.50
2022-08-25T18:51:53.922Z,9.35
2022-08-25T18:54:22.725Z,10.00
2022-08-25T18:56:55.948Z,10.82
2022-08-25T18:59:25.270Z,12.32
2022-08-25T19:01:53.999Z,11.73
2022-08-25T19:04:28.286Z,11.82
2022-08-25T19:07:01.863Z,13.82
2022-08-25T19:09:34.001Z,12.32
2022-08-25T19:12:02.168Z,13.35
2022-08-25T19:14:32.118Z,13.35
2022-08-25T19:17:00.868Z,14.80
2022-08-25T19:19:28.110Z,16.23
2022-08-25T19:21:57.025Z,17.08
2022-08-25T19:24:24.964Z,16.00
2022-08-25T19:26:54.964Z,16.75
2022-08-25T19:29:23.440Z,18.92
2022-08-25T19:31:51.169Z,18.80
2022-08-25T19:34:30.293Z,18.27
2022-08-25T19:37:01.877Z,17.70
2022-08-25T19:39:35.703Z,17.52
2022-08-25T19:42:07.520Z,17.80
2022-08-25T19:44:36.800Z,19.17
2022-08-25T19:47:05.266Z,19.23
2022-08-25T19:49:39.096Z,20.92
2022-08-25T19:52:12.141Z,19.13
2022-08-25T19:54:45.628Z,19.65
2022-08-25T19:57:14.520Z,19.35
2022-08-25T19:59:56.209Z,17.90
2022-08-25T20:02:29.718Z,18.75
2022-08-25T20:05:01.942Z,19.40
2022-08-25T20:07:31.206Z,17.65
2022-08-25T20:10:00.437Z,16.75
2022-08-25T20:12:28.774Z,17.33
2022-08-25T20:14:56.396Z,17.00
2022-08-25T20:17:28.183Z,15.82
2022-08-25T20:20:00.462Z,16.20
2022-08-25T20:22:31.378Z,16.05
2022-08-25T20:25:13.212Z,15.30
2022-08-25T20:27:46.459Z,13.65
2022-08-25T20:30:21.951Z,13.15
2022-08-25T20:32:52.970Z,15.15
2022-08-25T20:35:26.615Z,13.13
2022-08-25T20:37:56.071Z,12.68
2022-08-25T20:40:27.690Z,11.80
2022-08-25T20:42:56.964Z,12.32
2022-08-25T20:45:24.073Z,10.80
2022-08-25T20:47:51.043Z,11.40
2022-08-25T20:50:18.389Z,10.93
2022-08-25T20:52:45.449Z,9.23
2022-08-25T20:55:12.364Z,10.77
2022-08-25T20:57:40.296Z,9.95
2022-08-25T21:00:09.977Z,12.02
2022-08-25T21:02:36.964Z,9.45
2022-08-25T21:05:04.630Z,10.15
2022-08-25T21:07:31.672Z,9.88
2022-08-25T21:10:10.422Z,9.65
2022-08-25T21:12:41.678Z,9.10
2022-08-25T21:15:10.428Z,9.80
2022-08-25T21:17:37.528Z,9.45
2022-08-25T21:20:08.777Z,8.30
2022-08-25T21:22:38.265Z,8.88
2022-08-25T21:25:06.715Z,8.18
2022-08-25T21:27:33.568Z,7.97
2022-08-25T21:30:00.352Z,8.77
2022-08-25T21:32:27.196Z,6.75
2022-08-25T21:34:55.510Z,7.25
2022-08-25T21:37:24.847Z,7.70
2022-08-25T21:40:01.697Z,6.25
2022-08-25T21:42:28.703Z,6.30
2022-08-25T21:44:55.503Z,4.63
2022-08-25T21:47:23.308Z,4.57
2022-08-25T21:49:50.912Z,5.57
2022-08-25T21:52:20.728Z,4.63
2022-08-25T21:54:48.168Z,4.60
2022-08-25T21:57:17.816Z,4.18
2022-08-25T21:59:46.300Z,3.47
2022-08-25T22:02:19.247Z,3.65
2022-08-25T22:04:53.632Z,4.07
2022-08-25T22:07:24.701Z,3.03
2022-08-25T22:09:52.345Z,2.30
2022-08-25T22:12:19.529Z,2.20
2022-08-25T22:14:46.383Z,1.90
2022-08-25T22:17:17.056Z,2.63
2022-08-25T22:19:48.042Z,2.30
2022-08-25T22:22:21.096Z,2.08
2022-08-25T22:24:47.990Z,1.73
2022-08-25T22:27:15.771Z,1.63
2022-08-25T22:29:44.049Z,2.30
2022-08-25T22:32:13.639Z,1.63
2022-08-25T22:34:41.228Z,1.73
2022-08-25T22:37:10.553Z,1.80
2022-08-25T22:39:37.339Z,1.40
2022-08-25T22:42:07.877Z,2.08
2022-08-25T22:44:38.117Z,1.48
2022-08-25T22:47:05.851Z,1.80
2022-08-25T22:49:35.294Z,2.00
2022-08-25T22:52:03.053Z,2.05
2022-08-25T22:54:29.839Z,1.88
2022-08-25T22:56:56.633Z,1.60
2022-08-25T22:59:23.450Z,1.42
2022-08-25T23:01:54.776Z,1.20
2022-08-25T23:04:22.030Z,1.10
2022-08-25T23:06:49.991Z,1.30
2022-08-25T23:09:16.975Z,1.60
2022-08-25T23:11:43.884Z,1.48
2022-08-25T23:14:11.317Z,1.30
2022-08-25T23:16:41.818Z,1.85
2022-08-25T23:19:13.705Z,1.52
2022-08-25T23:22:01.400Z,1.73
2022-08-25T23:24:30.628Z,1.17
2022-08-25T23:27:01.286Z,1.10
2022-08-25T23:29:29.894Z,1.33
2022-08-25T23:31:58.613Z,1.08
2022-08-25T23:34:28.627Z,1.05
2022-08-25T23:36:56.803Z,1.30
2022-08-25T23:39:24.061Z,1.17
2022-08-25T23:41:54.400Z,1.33
2022-08-25T23:44:23.322Z,1.60
2022-08-25T23:46:52.682Z,1.65
2022-08-25T23:49:23.577Z,1.75
2022-08-25T23:51:52.885Z,1.67
2022-08-25T23:54:21.156Z,1.38
2022-08-25T23:56:52.163Z,1.45
2022-08-25T23:59:24.002Z,1.38
